Time;durP1;ratioP1;P1;durP2;ratioP2;P2;SDS_P1;SDS_P2;PMS_P1;PMS_P2;Temp;Humidity;BMP_temperature;BMP_pressure;BME280_temperature;BME280_humidity;BME280_pressure;Samples;Min_cycle;Max_cycle;Signal;HPM_P1;HPM_P2
2023/11/20 00:01:23;;;;;;;33.83;20.97;;;8.50;99.90;;;;;;4998129;28;20104;-70
2023/11/20 00:03:50;;;;;;;35.40;20.05;;;8.50;99.90;;;;;;4986800;28;20125;-71
2023/11/20 00:06:16;;;;;;;39.58;21.38;;;8.60;99.90;;;;;;4991728;28;20460;-71
2023/11/20 00:08:41;;;;;;;36.75;20.85;;;8.50;99.90;;;;;;4991029;28;20061;-70
2023/11/20 00:11:07;;;;;;;41.30;22.47;;;8.50;99.90;;;;;;4990768;28;20129;-70
2023/11/20 00:13:32;;;;;;;39.50;20.17;;;8.40;99.90;;;;;;4990779;28;20031;-70
2023/11/20 00:15:58;;;;;;;36.00;19.73;;;8.40;99.90;;;;;;4989693;28;20069;-70
2023/11/20 00:18:24;;;;;;;36.90;20.93;;;8.40;99.90;;;;;;4989463;28;20464;-70
2023/11/20 00:20:49;;;;;;;35.03;20.38;;;8.40;99.90;;;;;;4989165;28;20027;-70
2023/11/20 00:23:15;;;;;;;32.10;19.43;;;8.30;99.90;;;;;;4989237;28;20084;-70
2023/11/20 00:25:41;;;;;;;36.83;19.37;;;8.30;99.90;;;;;;4989081;28;20057;-71
2023/11/20 00:28:06;;;;;;;34.23;20.13;;;8.30;99.90;;;;;;4989063;28;20054;-70
2023/11/20 00:30:32;;;;;;;42.40;21.20;;;8.20;99.90;;;;;;4984122;28;20042;-71
2023/11/20 00:32:58;;;;;;;36.20;18.77;;;8.10;99.90;;;;;;4991665;28;20064;-71
2023/11/20 00:35:24;;;;;;;36.78;19.20;;;8.10;99.90;;;;;;4979846;28;20117;-70
2023/11/20 00:37:50;;;;;;;38.08;20.85;;;8.10;99.90;;;;;;4974963;28;20114;-70
2023/11/20 00:40:17;;;;;;;34.83;19.03;;;8.10;99.90;;;;;;4984804;28;20598;-70
2023/11/20 00:42:43;;;;;;;39.85;20.33;;;8.10;99.90;;;;;;4982749;28;20202;-70
2023/11/20 00:45:10;;;;;;;39.50;21.33;;;8.00;99.90;;;;;;4978376;28;20049;-70
2023/11/20 00:47:35;;;;;;;34.08;19.00;;;8.00;99.90;;;;;;4979490;28;20069;-70
2023/11/20 00:50:01;;;;;;;35.10;19.33;;;8.00;99.90;;;;;;4976505;28;20703;-70
2023/11/20 00:52:29;;;;;;;42.43;20.33;;;8.00;99.90;;;;;;4978842;28;20037;-70
2023/11/20 00:54:56;;;;;;;36.85;21.75;;;7.90;99.90;;;;;;4986989;28;20559;-71
2023/11/20 00:57:21;;;;;;;35.20;18.88;;;8.00;99.90;;;;;;4983751;28;20523;-70
2023/11/20 00:59:49;;;;;;;36.37;18.93;;;7.90;99.90;;;;;;4995768;28;20038;-70
2023/11/20 01:02:15;;;;;;;36.03;19.05;;;7.90;99.90;;;;;;4981097;28;20023;-70
2023/11/20 01:04:41;;;;;;;32.67;18.83;;;7.80;99.90;;;;;;4980348;28;20077;-70
2023/11/20 01:07:06;;;;;;;35.50;18.60;;;7.70;99.90;;;;;;4972463;28;20116;-70
2023/11/20 01:09:32;;;;;;;36.30;18.67;;;7.70;99.90;;;;;;4979034;28;20516;-70
2023/11/20 01:11:58;;;;;;;31.27;18.03;;;7.70;99.90;;;;;;4983985;28;20049;-70
2023/11/20 01:14:23;;;;;;;41.57;21.17;;;7.70;99.90;;;;;;4981654;28;20598;-69
2023/11/20 01:16:49;;;;;;;33.57;19.37;;;7.70;99.90;;;;;;4980946;28;20504;-70
2023/11/20 01:19:14;;;;;;;39.10;21.33;;;7.70;99.90;;;;;;4979484;28;20026;-70
2023/11/20 01:21:42;;;;;;;32.23;18.83;;;7.70;99.90;;;;;;4978734;28;20038;-70
2023/11/20 01:24:08;;;;;;;32.13;17.92;;;7.60;99.90;;;;;;4983451;28;20117;-69
2023/11/20 01:26:36;;;;;;;27.23;17.40;;;7.60;99.90;;;;;;4978461;28;20171;-70
2023/11/20 01:29:02;;;;;;;34.22;18.70;;;7.50;99.90;;;;;;4985918;28;20074;-69
2023/11/20 01:31:30;;;;;;;32.93;19.73;;;7.40;99.90;;;;;;4987085;28;20152;-70
2023/11/20 01:33:55;;;;;;;33.00;17.55;;;7.40;99.90;;;;;;4987197;28;20152;-69
2023/11/20 01:36:21;;;;;;;29.17;15.73;;;7.40;99.90;;;;;;4988516;28;20141;-69
2023/11/20 01:38:50;;;;;;;31.50;16.77;;;7.40;99.90;;;;;;4987029;28;20046;-70
2023/11/20 01:41:16;;;;;;;28.80;16.63;;;7.40;99.90;;;;;;4982451;28;20054;-70
2023/11/20 01:43:42;;;;;;;30.33;15.90;;;7.30;99.90;;;;;;4988488;28;20098;-70
2023/11/20 01:46:12;;;;;;;27.47;15.83;;;7.20;99.90;;;;;;4983449;28;20540;-71
2023/11/20 01:48:39;;;;;;;25.10;15.70;;;7.20;99.90;;;;;;4985689;28;20041;-70
2023/11/20 01:51:05;;;;;;;;;;;7.30;99.90;;;;;;4985269;28;20046;-70
2023/11/20 01:53:32;;;;;;;25.90;15.30;;;7.40;99.90;;;;;;4982184;28;19917;-70
2023/11/20 01:55:58;;;;;;;26.13;14.93;;;7.30;99.90;;;;;;4987416;28;20029;-70
2023/11/20 01:58:25;;;;;;;24.42;15.10;;;7.40;99.90;;;;;;4992392;28;20034;-71
2023/11/20 02:00:51;;;;;;;25.77;15.68;;;7.40;99.90;;;;;;4991252;28;20030;-71
2023/11/20 02:03:19;;;;;;;25.33;14.45;;;7.30;99.90;;;;;;4992513;28;20054;-71
2023/11/20 02:05:45;;;;;;;21.52;12.90;;;7.30;99.90;;;;;;4993327;28;20026;-71
2023/11/20 02:08:10;;;;;;;21.88;14.00;;;7.20;99.90;;;;;;4993558;28;20518;-71
2023/11/20 02:10:37;;;;;;;25.70;13.70;;;7.30;99.90;;;;;;4992723;28;20145;-71
2023/11/20 02:13:04;;;;;;;31.42;15.40;;;7.30;99.90;;;;;;4992641;28;20042;-71
2023/11/20 02:15:30;;;;;;;24.92;13.30;;;7.20;99.90;;;;;;4993409;28;20030;-71
2023/11/20 02:17:55;;;;;;;21.55;13.05;;;7.30;99.90;;;;;;4993488;28;20451;-72
2023/11/20 02:20:24;;;;;;;24.27;13.37;;;7.20;99.90;;;;;;4991906;28;20030;-71
2023/11/20 02:22:51;;;;;;;27.60;13.85;;;7.30;99.90;;;;;;4991145;28;20029;-71
2023/11/20 02:25:19;;;;;;;25.52;13.05;;;7.20;99.90;;;;;;4992675;28;20085;-71
2023/11/20 02:28:14;;;;;;;25.08;13.52;;;7.20;99.90;;;;;;4991291;28;20034;-71
2023/11/20 02:30:40;;;;;;;25.15;13.95;;;7.20;99.90;;;;;;4993045;28;20044;-71
2023/11/20 02:33:06;;;;;;;20.63;12.87;;;7.20;99.90;;;;;;4992736;28;20565;-71
2023/11/20 02:35:31;;;;;;;20.17;12.60;;;7.20;99.90;;;;;;4992987;28;20114;-71
2023/11/20 02:37:57;;;;;;;24.27;11.80;;;7.10;99.90;;;;;;4992505;28;20344;-71
2023/11/20 02:40:23;;;;;;;19.98;12.75;;;7.00;99.90;;;;;;4992294;28;20065;-71
2023/11/20 02:42:48;;;;;;;18.53;11.03;;;7.00;99.90;;;;;;4992897;28;20062;-71
2023/11/20 02:45:14;;;;;;;23.77;11.97;;;7.00;99.90;;;;;;4992867;28;20091;-71
2023/11/20 02:47:39;;;;;;;21.37;12.17;;;7.00;99.90;;;;;;4992677;28;20026;-71
2023/11/20 02:50:06;;;;;;;22.83;13.20;;;7.00;99.90;;;;;;5002915;28;20045;-71
2023/11/20 02:52:31;;;;;;;23.02;12.82;;;7.00;99.90;;;;;;5012297;28;20033;-70
2023/11/20 02:54:59;;;;;;;21.23;11.93;;;6.90;99.90;;;;;;5011938;28;20026;-71
2023/11/20 02:57:25;;;;;;;21.85;11.45;;;6.80;99.90;;;;;;4997417;28;20109;-70
2023/11/20 02:59:51;;;;;;;17.67;11.60;;;6.80;99.90;;;;;;4991964;28;20022;-71
2023/11/20 03:02:19;;;;;;;19.13;10.97;;;6.80;99.90;;;;;;4991663;28;20034;-71
2023/11/20 03:04:45;;;;;;;18.55;11.20;;;6.80;99.90;;;;;;4992002;28;20026;-71
2023/11/20 03:07:10;;;;;;;17.30;11.10;;;6.80;99.90;;;;;;4992509;28;20023;-72
2023/11/20 03:09:36;;;;;;;20.03;11.60;;;6.90;99.90;;;;;;4992407;28;20400;-72
2023/11/20 03:12:03;;;;;;;23.42;12.68;;;7.00;99.90;;;;;;4992873;28;20034;-72
2023/11/20 03:14:29;;;;;;;22.00;12.55;;;7.10;99.90;;;;;;4992744;28;20026;-71
2023/11/20 03:16:55;;;;;;;24.00;12.37;;;7.20;99.90;;;;;;4992535;28;20045;-72
2023/11/20 03:19:20;;;;;;;22.93;12.10;;;7.00;99.90;;;;;;4991943;28;20122;-72
2023/11/20 03:21:46;;;;;;;20.47;9.57;;;7.00;99.90;;;;;;4991982;28;20022;-71
2023/11/20 03:24:12;;;;;;;20.33;11.13;;;7.10;99.90;;;;;;4992328;28;20026;-71
2023/11/20 03:26:38;;;;;;;20.37;10.17;;;7.10;99.90;;;;;;4992562;28;20031;-71
2023/11/20 03:29:03;;;;;;;26.27;11.33;;;7.10;99.90;;;;;;4992128;28;20037;-71
2023/11/20 03:31:36;;;;;;;23.80;12.47;;;7.20;99.90;;;;;;4991670;28;20057;-71
2023/11/20 03:34:03;;;;;;;25.13;12.13;;;7.20;99.90;;;;;;4990756;28;20108;-71
2023/11/20 03:36:30;;;;;;;22.75;12.73;;;7.30;99.90;;;;;;4990924;28;20156;-72
2023/11/20 03:38:56;;;;;;;22.38;13.73;;;7.30;99.90;;;;;;4989335;28;20084;-72
2023/11/20 03:41:22;;;;;;;23.90;14.10;;;7.30;99.90;;;;;;4990961;28;20031;-72
2023/11/20 03:43:47;;;;;;;20.97;11.67;;;7.20;99.90;;;;;;4990907;28;20339;-72
2023/11/20 03:46:13;;;;;;;20.27;12.83;;;7.20;99.90;;;;;;4991208;28;20265;-72
2023/11/20 03:48:38;;;;;;;22.03;12.67;;;7.10;99.90;;;;;;4991416;28;20618;-71
2023/11/20 03:51:04;;;;;;;19.30;13.10;;;7.10;99.90;;;;;;4989775;28;20030;-72
2023/11/20 03:53:31;;;;;;;22.33;12.00;;;7.10;99.90;;;;;;4991522;28;20026;-72
2023/11/20 03:55:57;;;;;;;21.98;12.77;;;7.10;99.90;;;;;;4991842;28;20542;-71
2023/11/20 03:58:22;;;;;;;21.50;13.13;;;7.10;99.90;;;;;;4991949;28;20058;-71
2023/11/20 04:00:48;;;;;;;21.80;12.90;;;7.00;99.90;;;;;;4990565;28;20157;-71
2023/11/20 04:03:13;;;;;;;19.90;12.33;;;7.00;99.90;;;;;;4992135;28;20041;-72
2023/11/20 04:05:39;;;;;;;18.87;11.70;;;6.90;99.90;;;;;;4991893;28;20274;-71
2023/11/20 04:08:05;;;;;;;21.00;12.13;;;6.90;99.90;;;;;;4991284;28;20127;-71
2023/11/20 04:10:31;;;;;;;22.17;11.00;;;6.90;99.90;;;;;;4991211;28;20030;-71
2023/11/20 04:12:56;;;;;;;16.30;10.00;;;6.80;99.90;;;;;;4990668;28;20583;-71
2023/11/20 04:15:22;;;;;;;17.20;11.27;;;6.80;99.90;;;;;;4990466;28;20113;-71
2023/11/20 04:17:48;;;;;;;16.57;10.37;;;6.80;99.90;;;;;;4990494;28;20789;-71
2023/11/20 04:20:13;;;;;;;20.47;9.87;;;6.70;99.90;;;;;;4990478;28;20028;-71
2023/11/20 04:22:39;;;;;;;15.55;10.07;;;6.70;99.90;;;;;;4990244;28;20030;-70
2023/11/20 04:25:05;;;;;;;18.37;10.63;;;6.60;99.90;;;;;;4989392;28;20038;-70
2023/11/20 04:27:31;;;;;;;15.65;10.40;;;6.60;99.90;;;;;;4990634;28;20077;-70
2023/11/20 04:29:57;;;;;;;13.85;10.25;;;6.60;99.90;;;;;;4990606;28;20046;-71
2023/11/20 04:32:23;;;;;;;15.60;9.18;;;6.60;99.90;;;;;;4989252;28;20030;-70
2023/11/20 04:34:48;;;;;;;16.98;10.50;;;6.60;99.90;;;;;;4990630;28;20500;-68
2023/11/20 04:37:14;;;;;;;14.70;9.40;;;6.70;99.90;;;;;;4988259;28;20058;-70
2023/11/20 04:39:40;;;;;;;16.83;9.87;;;6.70;99.90;;;;;;4991271;28;20034;-69
2023/11/20 04:42:05;;;;;;;14.00;9.80;;;6.60;99.90;;;;;;4990671;28;20286;-69
2023/11/20 04:44:31;;;;;;;16.75;9.65;;;6.60;99.90;;;;;;4994342;28;20026;-70
2023/11/20 04:46:57;;;;;;;17.90;10.17;;;6.40;99.90;;;;;;5004974;28;20029;-70
2023/11/20 04:49:22;;;;;;;15.83;11.27;;;6.40;99.90;;;;;;4990417;28;20022;-70
2023/11/20 04:51:48;;;;;;;14.67;10.63;;;6.40;99.90;;;;;;4990409;28;20164;-69
2023/11/20 04:54:14;;;;;;;16.15;10.40;;;6.40;99.90;;;;;;4989886;28;20120;-70
2023/11/20 04:56:39;;;;;;;18.67;11.07;;;6.30;99.90;;;;;;4989335;28;20042;-70
2023/11/20 04:59:05;;;;;;;19.15;12.20;;;6.30;99.90;;;;;;4989222;28;20041;-70
2023/11/20 05:01:32;;;;;;;25.77;12.27;;;6.20;99.90;;;;;;4989685;28;20403;-69
2023/11/20 05:03:58;;;;;;;21.25;12.75;;;6.20;99.90;;;;;;4988705;28;20731;-70
2023/11/20 05:06:24;;;;;;;25.48;11.05;;;6.20;99.90;;;;;;4990950;28;20037;-70
2023/11/20 05:08:50;;;;;;;19.33;11.57;;;6.20;99.90;;;;;;4990809;28;20031;-70
2023/11/20 05:11:15;;;;;;;19.92;10.35;;;6.20;99.90;;;;;;4991110;28;20058;-70
2023/11/20 05:13:42;;;;;;;20.13;10.20;;;6.20;99.90;;;;;;4989233;28;20038;-70
2023/11/20 05:16:08;;;;;;;19.13;9.77;;;6.10;99.90;;;;;;4990637;28;20301;-70
2023/11/20 05:18:34;;;;;;;24.60;11.57;;;6.00;99.90;;;;;;4990946;28;20066;-70
2023/11/20 05:21:00;;;;;;;26.00;10.77;;;6.10;99.90;;;;;;4990053;28;20045;-70
2023/11/20 05:23:26;;;;;;;30.48;13.27;;;6.10;99.90;;;;;;4989996;28;20496;-69
2023/11/20 05:25:53;;;;;;;39.67;13.13;;;6.00;99.90;;;;;;4989885;28;20424;-70
2023/11/20 05:28:20;;;;;;;49.90;24.70;;;6.00;99.90;;;;;;4990093;28;20050;-70
2023/11/20 05:30:46;;;;;;;65.78;25.05;;;6.00;99.90;;;;;;4988225;28;20057;-70
2023/11/20 05:33:12;;;;;;;61.95;17.83;;;6.00;99.90;;;;;;4988509;28;20038;-69
2023/11/20 05:35:40;;;;;;;46.63;14.80;;;5.90;99.90;;;;;;4988437;28;20041;-70
2023/11/20 05:38:06;;;;;;;23.58;11.88;;;5.80;99.90;;;;;;4989973;28;20400;-69
2023/11/20 05:40:32;;;;;;;23.38;13.05;;;5.80;99.90;;;;;;4989326;28;20038;-70
2023/11/20 05:42:58;;;;;;;31.33;15.93;;;5.70;99.90;;;;;;4989317;28;20041;-69
2023/11/20 05:45:24;;;;;;;33.03;16.55;;;5.70;99.90;;;;;;4990581;28;20113;-69
2023/11/20 05:47:49;;;;;;;32.93;15.70;;;5.70;99.90;;;;;;4988988;28;20105;-69
2023/11/20 05:50:15;;;;;;;38.00;13.97;;;5.70;99.90;;;;;;4989383;28;20034;-70
2023/11/20 05:52:41;;;;;;;21.10;13.50;;;5.70;99.90;;;;;;4988444;28;20031;-69
2023/11/20 05:55:07;;;;;;;37.92;12.98;;;5.60;99.90;;;;;;4989893;28;20026;-69
2023/11/20 05:57:33;;;;;;;39.65;11.68;;;5.60;99.90;;;;;;4990245;28;20030;-70
2023/11/20 05:59:59;;;;;;;43.92;13.73;;;5.70;99.90;;;;;;4988270;28;20488;-70
2023/11/20 06:02:24;;;;;;;36.05;12.43;;;5.80;99.90;;;;;;4989842;28;20030;-70
2023/11/20 06:04:50;;;;;;;21.83;12.40;;;5.70;99.90;;;;;;4989634;28;20022;-70
2023/11/20 06:07:16;;;;;;;28.50;12.33;;;5.70;99.90;;;;;;4989772;28;20093;-69
2023/11/20 06:09:41;;;;;;;17.63;11.57;;;5.80;99.90;;;;;;4990062;28;20045;-70
2023/11/20 06:12:07;;;;;;;17.77;12.40;;;5.90;99.90;;;;;;4989991;28;20105;-70
2023/11/20 06:14:33;;;;;;;16.27;10.87;;;5.90;99.90;;;;;;4989827;28;20045;-69
2023/11/20 06:16:59;;;;;;;19.77;9.95;;;5.90;99.90;;;;;;4989051;28;20034;-69
2023/11/20 06:19:27;;;;;;;21.53;10.80;;;5.90;99.90;;;;;;4974426;28;20031;-69
2023/11/20 06:21:54;;;;;;;16.05;10.45;;;5.90;99.90;;;;;;4987854;28;20033;-70
2023/11/20 06:24:20;;;;;;;23.30;11.77;;;5.90;99.90;;;;;;4992490;28;20018;-70
2023/11/20 06:26:45;;;;;;;20.58;12.05;;;5.90;99.90;;;;;;4992433;28;20467;-70
2023/11/20 06:29:11;;;;;;;24.03;13.83;;;5.90;99.90;;;;;;4992940;28;20098;-70
2023/11/20 06:31:37;;;;;;;30.13;17.65;;;5.90;99.90;;;;;;4992909;28;20121;-70
2023/11/20 06:34:03;;;;;;;23.80;13.23;;;5.90;99.90;;;;;;4993178;28;20044;-71
2023/11/20 06:36:29;;;;;;;26.65;14.55;;;5.90;99.90;;;;;;4993001;28;20038;-71
2023/11/20 06:38:55;;;;;;;29.50;17.88;;;6.00;99.90;;;;;;4992064;28;20156;-71
2023/11/20 06:41:25;;;;;;;26.33;14.48;;;5.90;99.90;;;;;;5009236;28;20483;-67
2023/11/20 06:43:51;;;;;;;20.83;12.25;;;5.90;99.90;;;;;;5003935;28;20804;-68
2023/11/20 06:46:17;;;;;;;23.10;12.47;;;5.90;99.90;;;;;;4981834;28;20034;-68
2023/11/20 06:48:43;;;;;;;;;;;5.90;99.90;;;;;;4987258;28;20035;-68
2023/11/20 06:51:10;;;;;;;20.23;11.45;;;5.70;99.90;;;;;;4982245;28;20414;-68
2023/11/20 06:53:36;;;;;;;23.25;11.95;;;5.80;99.90;;;;;;4977778;28;20135;-69
2023/11/20 06:56:03;;;;;;;28.97;13.60;;;5.90;99.90;;;;;;4984676;28;20026;-69
2023/11/20 06:58:29;;;;;;;30.70;14.75;;;5.90;99.90;;;;;;4978944;28;20062;-68
2023/11/20 07:00:54;;;;;;;38.33;15.45;;;5.90;99.90;;;;;;4985374;28;20034;-68
2023/11/20 07:03:20;;;;;;;43.53;15.57;;;6.00;99.90;;;;;;4977062;28;20031;-69
2023/11/20 07:05:49;;;;;;;39.97;15.07;;;6.20;99.90;;;;;;4983755;28;20098;-68
2023/11/20 07:08:16;;;;;;;32.90;15.75;;;6.30;99.90;;;;;;4981083;28;20038;-69
2023/11/20 07:10:44;;;;;;;32.33;15.55;;;6.40;99.90;;;;;;4976023;28;20508;-69
2023/11/20 07:13:10;;;;;;;30.25;15.90;;;6.60;99.90;;;;;;4984120;28;20492;-68
2023/11/20 07:15:35;;;;;;;37.15;16.90;;;6.80;99.90;;;;;;4975616;28;20492;-68
2023/11/20 07:18:02;;;;;;;30.50;16.33;;;6.90;99.90;;;;;;4983736;28;20038;-69
2023/11/20 07:20:28;;;;;;;36.90;16.15;;;7.10;99.90;;;;;;4982303;28;20045;-69
2023/11/20 07:22:55;;;;;;;30.37;15.67;;;7.20;99.90;;;;;;4983232;28;20412;-69
2023/11/20 07:25:22;;;;;;;35.67;17.45;;;7.30;99.90;;;;;;4983725;28;20027;-69
2023/11/20 07:27:48;;;;;;;38.33;15.85;;;7.40;99.90;;;;;;4979528;28;20058;-68
2023/11/20 07:30:14;;;;;;;34.95;15.52;;;7.50;99.90;;;;;;4985957;28;20499;-68
2023/11/20 07:32:40;;;;;;;33.85;15.65;;;7.50;99.90;;;;;;4982009;28;20124;-68
2023/11/20 07:35:07;;;;;;;38.03;17.27;;;7.50;99.90;;;;;;4981192;28;20494;-69
2023/11/20 07:37:34;;;;;;;32.75;15.63;;;7.40;99.90;;;;;;4981476;28;20770;-69
2023/11/20 07:40:08;;;;;;;36.90;16.08;;;7.40;99.90;;;;;;4981762;28;20033;-69
2023/11/20 07:42:33;;;;;;;32.25;15.65;;;7.40;99.90;;;;;;4980780;28;20034;-69
2023/11/20 07:44:59;;;;;;;32.57;15.53;;;7.50;99.90;;;;;;4989733;28;20037;-68
2023/11/20 07:47:25;;;;;;;32.07;16.27;;;7.80;99.90;;;;;;4985273;28;20038;-69
2023/11/20 07:49:51;;;;;;;24.30;13.32;;;8.50;99.90;;;;;;4981585;28;20343;-68
2023/11/20 07:52:16;;;;;;;27.67;12.60;;;10.20;99.90;;;;;;4981618;28;20420;-69
2023/11/20 07:54:43;;;;;;;23.10;12.63;;;9.60;99.90;;;;;;4980648;28;20567;-68
2023/11/20 07:57:11;;;;;;;25.10;12.27;;;9.10;99.90;;;;;;4981841;28;20038;-68
2023/11/20 07:59:37;;;;;;;25.63;12.05;;;9.00;99.90;;;;;;4982875;28;20117;-68
2023/11/20 08:02:03;;;;;;;24.17;12.32;;;8.80;99.90;;;;;;4985969;28;20563;-67
2023/11/20 08:04:30;;;;;;;27.52;12.13;;;9.10;99.90;;;;;;4992221;28;20033;-67
2023/11/20 08:06:56;;;;;;;22.63;12.88;;;8.60;99.90;;;;;;4995419;28;20030;-69
2023/11/20 08:09:22;;;;;;;29.03;13.07;;;8.20;99.90;;;;;;4990552;28;20030;-68
2023/11/20 08:11:47;;;;;;;22.85;11.93;;;8.30;99.90;;;;;;4988557;28;20416;-68
2023/11/20 08:14:15;;;;;;;24.90;13.67;;;8.50;99.90;;;;;;4988168;28;20038;-68
2023/11/20 08:16:41;;;;;;;22.15;13.13;;;8.20;99.90;;;;;;4989453;28;20018;-69
2023/11/20 08:19:07;;;;;;;30.92;14.20;;;8.10;99.90;;;;;;4984672;28;20527;-67
2023/11/20 08:21:32;;;;;;;23.37;13.07;;;8.00;99.90;;;;;;4987493;28;20034;-68
2023/11/20 08:23:58;;;;;;;22.30;12.77;;;8.00;99.90;;;;;;4988921;28;20054;-68
2023/11/20 08:26:25;;;;;;;18.83;11.13;;;8.00;99.90;;;;;;4989609;28;20531;-67
2023/11/20 08:28:50;;;;;;;21.63;11.85;;;8.00;99.90;;;;;;4983297;28;20031;-68
2023/11/20 08:31:18;;;;;;;22.40;13.97;;;8.00;99.90;;;;;;4986281;28;20496;-69
2023/11/20 08:33:43;;;;;;;25.77;14.48;;;8.00;99.90;;;;;;4994681;28;20412;-68
2023/11/20 08:36:09;;;;;;;30.87;17.20;;;8.00;99.90;;;;;;4985678;28;20026;-68
2023/11/20 08:38:35;;;;;;;30.27;18.63;;;8.00;99.90;;;;;;4985073;28;20381;-67
2023/11/20 08:41:00;;;;;;;26.13;17.57;;;8.00;99.90;;;;;;4980593;28;20587;-68
2023/11/20 08:43:27;;;;;;;31.63;16.70;;;8.00;99.90;;;;;;4979754;28;20031;-68
2023/11/20 08:45:53;;;;;;;30.50;15.80;;;8.00;99.90;;;;;;4980496;28;20033;-68
2023/11/20 08:48:19;;;;;;;28.58;15.57;;;8.10;99.90;;;;;;4984288;28;20137;-69
2023/11/20 08:50:44;;;;;;;28.20;16.77;;;8.10;99.90;;;;;;4983031;28;20496;-68
2023/11/20 08:53:10;;;;;;;26.33;14.93;;;8.10;99.90;;;;;;4980349;28;20300;-67
2023/11/20 08:55:36;;;;;;;27.33;15.53;;;8.20;99.90;;;;;;4985431;28;20088;-67
2023/11/20 08:58:04;;;;;;;26.25;14.82;;;8.20;99.90;;;;;;4984757;28;20035;-67
2023/11/20 09:00:30;;;;;;;31.20;16.35;;;8.10;99.90;;;;;;4983222;28;20041;-68
2023/11/20 09:02:55;;;;;;;26.73;17.63;;;8.10;99.90;;;;;;4972580;28;20077;-68
2023/11/20 09:05:21;;;;;;;21.53;15.17;;;8.20;99.90;;;;;;4980938;28;20038;-69
2023/11/20 09:07:47;;;;;;;22.63;14.87;;;8.30;99.90;;;;;;4982085;28;20027;-68
2023/11/20 09:10:12;;;;;;;27.17;14.07;;;8.40;99.90;;;;;;4984348;28;20053;-66
2023/11/20 09:12:44;;;;;;;27.17;13.17;;;8.40;99.90;;;;;;4999867;28;20569;-67
2023/11/20 09:15:11;;;;;;;21.95;13.88;;;8.40;99.90;;;;;;4985203;28;20500;-67
2023/11/20 09:17:37;;;;;;;;;;;8.50;99.90;;;;;;4980450;28;20514;-66
2023/11/20 09:20:03;;;;;;;23.88;13.20;;;8.50;99.90;;;;;;4979132;28;19914;-69
2023/11/20 09:22:29;;;;;;;;;;;8.50;99.90;;;;;;4978150;28;20117;-69
2023/11/20 09:24:56;;;;;;;28.20;14.48;;;8.50;99.90;;;;;;4986455;28;19922;-69
2023/11/20 09:27:22;;;;;;;36.45;16.83;;;8.50;99.90;;;;;;4987311;28;20034;-68
2023/11/20 09:29:48;;;;;;;39.97;18.95;;;8.60;99.90;;;;;;4981828;28;20027;-73
2023/11/20 09:32:13;;;;;;;36.78;17.20;;;8.60;99.90;;;;;;4981964;28;20045;-69
2023/11/20 09:34:39;;;;;;;42.70;17.90;;;8.60;99.90;;;;;;4979933;28;20022;-68
2023/11/20 09:37:05;;;;;;;35.63;15.40;;;8.70;99.90;;;;;;4980039;28;20023;-69
2023/11/20 09:39:31;;;;;;;30.60;14.80;;;8.70;99.90;;;;;;4982897;28;20041;-69
2023/11/20 09:41:57;;;;;;;31.30;17.02;;;8.70;99.90;;;;;;4983389;28;20444;-69
2023/11/20 09:44:27;;;;;;;30.75;14.65;;;8.60;99.90;;;;;;4986253;28;20029;-69
2023/11/20 09:46:53;;;;;;;35.63;15.38;;;8.70;99.90;;;;;;4985287;28;20034;-69
2023/11/20 09:49:25;;;;;;;36.13;15.10;;;8.80;99.90;;;;;;4981266;28;20034;-69
2023/11/20 09:51:56;;;;;;;36.20;16.15;;;8.80;99.90;;;;;;4989044;28;20464;-68
2023/11/20 09:54:26;;;;;;;37.63;15.23;;;8.80;99.90;;;;;;4989177;28;20030;-69
2023/11/20 09:56:52;;;;;;;34.08;18.92;;;8.80;99.90;;;;;;4989162;28;20413;-69
2023/11/20 09:59:21;;;;;;;37.78;20.33;;;8.90;99.90;;;;;;4988502;28;20030;-69
2023/11/20 10:01:51;;;;;;;30.70;17.98;;;8.90;99.90;;;;;;4992044;28;20117;-69
2023/11/20 10:04:18;;;;;;;36.05;19.15;;;8.90;99.90;;;;;;4993448;28;20516;-69
2023/11/20 10:06:45;;;;;;;35.50;18.88;;;8.90;99.90;;;;;;4988188;28;20038;-74
2023/11/20 10:09:18;;;;;;;34.80;18.02;;;8.90;99.90;;;;;;4998277;28;20050;-70
2023/11/20 10:11:47;;;;;;;31.60;18.10;;;9.00;99.90;;;;;;4982296;28;20666;-74
2023/11/20 10:14:19;;;;;;;37.28;19.35;;;9.10;99.90;;;;;;4985841;28;20033;-72
2023/11/20 10:16:46;;;;;;;33.08;19.27;;;9.10;99.90;;;;;;4984691;28;20054;-72
2023/11/20 10:19:14;;;;;;;36.03;19.65;;;9.10;99.90;;;;;;4988691;28;20023;-73
2023/11/20 10:21:40;;;;;;;36.70;19.48;;;9.10;99.90;;;;;;4989624;28;20034;-72
2023/11/20 10:24:07;;;;;;;37.40;20.05;;;9.20;99.90;;;;;;4988793;28;20023;-71
2023/11/20 10:26:33;;;;;;;39.42;20.50;;;9.20;99.90;;;;;;4987230;28;20034;-71
2023/11/20 10:29:00;;;;;;;38.92;21.80;;;9.10;99.90;;;;;;4992486;28;20045;-70
2023/11/20 10:31:31;;;;;;;35.05;20.25;;;9.10;99.90;;;;;;4986681;28;20192;-71
2023/11/20 10:34:06;;;;;;;30.98;18.88;;;9.00;99.90;;;;;;4987004;28;20364;-70
2023/11/20 10:36:35;;;;;;;30.67;19.65;;;9.00;99.90;;;;;;4987997;28;20080;-70
2023/11/20 10:39:01;;;;;;;35.05;20.70;;;9.30;99.90;;;;;;4985524;28;20041;-68
2023/11/20 10:41:29;;;;;;;35.38;20.75;;;9.40;99.90;;;;;;4991021;28;20519;-69
2023/11/20 10:43:55;;;;;;;35.88;20.10;;;9.30;99.90;;;;;;4999426;28;20640;-70
2023/11/20 10:46:23;;;;;;;35.28;20.15;;;9.40;99.90;;;;;;4986906;28;20022;-71
2023/11/20 10:48:49;;;;;;;34.50;19.48;;;9.50;99.90;;;;;;4983215;28;20045;-71
2023/11/20 10:51:19;;;;;;;31.30;19.27;;;9.60;99.90;;;;;;4983285;28;20038;-70
2023/11/20 10:53:58;;;;;;;31.05;19.08;;;9.60;99.90;;;;;;4987727;28;20133;-70
2023/11/20 10:56:31;;;;;;;34.50;19.15;;;9.80;99.90;;;;;;4990976;28;20096;-71
2023/11/20 10:59:01;;;;;;;26.38;17.55;;;9.90;99.90;;;;;;4982637;28;20035;-71
2023/11/20 11:01:30;;;;;;;41.38;19.38;;;10.00;99.90;;;;;;5004231;28;20034;-70
2023/11/20 11:03:59;;;;;;;32.72;21.35;;;10.00;99.90;;;;;;4986482;28;20038;-70
2023/11/20 11:06:27;;;;;;;30.17;20.05;;;10.00;99.90;;;;;;4983433;28;20066;-70
2023/11/20 11:08:56;;;;;;;27.63;17.45;;;10.00;99.90;;;;;;4994668;28;20078;-69
2023/11/20 11:11:22;;;;;;;27.13;18.58;;;10.20;99.90;;;;;;4985062;28;20042;-70
2023/11/20 11:13:52;;;;;;;26.95;18.98;;;10.10;99.90;;;;;;4995308;28;20508;-70
2023/11/20 11:16:27;;;;;;;26.85;17.33;;;10.20;99.90;;;;;;4982106;28;20031;-73
2023/11/20 11:19:06;;;;;;;36.40;19.10;;;10.30;99.90;;;;;;4975525;28;20118;-73
2023/11/20 11:21:59;;;;;;;33.42;20.98;;;10.40;99.90;;;;;;4989987;28;20022;-73
2023/11/20 11:24:27;;;;;;;30.90;18.80;;;10.40;99.90;;;;;;4990306;28;20042;-73
2023/11/20 11:27:12;;;;;;;27.00;18.35;;;10.40;99.90;;;;;;4986222;28;20698;-73
2023/11/20 11:29:43;;;;;;;30.05;18.42;;;10.50;99.90;;;;;;4987596;28;20026;-73
2023/11/20 11:32:09;;;;;;;30.67;18.38;;;10.60;99.90;;;;;;4990570;28;20530;-73
2023/11/20 11:34:41;;;;;;;27.38;17.55;;;10.50;99.90;;;;;;4984512;28;20153;-74
2023/11/20 11:37:37;;;;;;;25.65;17.35;;;10.50;99.90;;;;;;4982719;28;20027;-73
2023/11/20 11:40:41;;;;;;;26.33;18.73;;;10.50;99.90;;;;;;4979189;28;20022;-73
2023/11/20 11:43:15;;;;;;;28.58;17.63;;;10.50;99.90;;;;;;4994617;28;20046;-73
2023/11/20 11:45:44;;;;;;;28.23;17.88;;;10.50;99.90;;;;;;4990216;28;20040;-73
2023/11/20 11:48:10;;;;;;;25.92;18.08;;;10.70;99.90;;;;;;5005414;28;20034;-72
2023/11/20 11:50:37;;;;;;;21.10;15.75;;;10.70;99.90;;;;;;4989672;28;20113;-73
2023/11/20 11:53:03;;;;;;;28.00;17.33;;;10.80;99.90;;;;;;4989452;28;20112;-73
2023/11/20 11:55:40;;;;;;;27.20;18.05;;;10.80;99.90;;;;;;4993098;28;20022;-73
2023/11/20 11:58:14;;;;;;;27.85;17.52;;;11.00;99.90;;;;;;4989376;28;20030;-73
2023/11/20 12:00:40;;;;;;;24.30;16.40;;;11.10;99.90;;;;;;4996097;28;20408;-73
2023/11/20 12:03:08;;;;;;;35.73;18.37;;;11.30;99.90;;;;;;4986480;28;20030;-71
2023/11/20 12:05:54;;;;;;;28.38;18.13;;;11.10;99.90;;;;;;4985344;28;20034;-70
2023/11/20 12:08:22;;;;;;;30.70;17.30;;;10.80;99.90;;;;;;4983674;28;20029;-71
2023/11/20 12:10:52;;;;;;;28.15;17.20;;;10.90;99.90;;;;;;4988141;28;20082;-70
2023/11/20 12:13:26;;;;;;;28.00;16.67;;;11.00;99.90;;;;;;4989260;28;20022;-71
2023/11/20 12:15:56;;;;;;;26.67;17.48;;;11.00;99.90;;;;;;4983449;28;20130;-67
2023/11/20 12:18:28;;;;;;;26.95;17.05;;;11.00;99.90;;;;;;4980475;28;20030;-69
2023/11/20 12:20:57;;;;;;;27.17;17.15;;;11.00;99.90;;;;;;4985621;28;20027;-68
2023/11/20 12:23:30;;;;;;;27.75;18.40;;;11.00;99.90;;;;;;4983289;28;20038;-68
2023/11/20 12:25:58;;;;;;;25.40;16.55;;;11.10;99.90;;;;;;4985098;28;20076;-69
2023/11/20 12:28:25;;;;;;;30.00;18.15;;;11.30;99.90;;;;;;5002287;28;20034;-68
2023/11/20 12:30:54;;;;;;;28.75;20.33;;;11.40;99.90;;;;;;4978146;28;20608;-68
2023/11/20 12:33:20;;;;;;;26.95;17.85;;;11.40;99.90;;;;;;4988195;28;20033;-69
2023/11/20 12:35:52;;;;;;;29.08;18.67;;;11.50;99.90;;;;;;4987321;28;20386;-69
2023/11/20 12:38:19;;;;;;;34.58;19.65;;;11.60;99.90;;;;;;4987004;28;20038;-69